sensor_id;sensor_type;location;lat;lon;timestamp;temperature;humidity
73360;DHT22;63092;43.582;19.528;2023-07-31T00:00:35;21.60;99.90
73360;DHT22;63092;43.582;19.528;2023-07-31T00:03:01;21.50;99.90
73360;DHT22;63092;43.582;19.528;2023-07-31T00:05:27;21.50;99.90
73360;DHT22;63092;43.582;19.528;2023-07-31T00:07:52;21.50;99.90
73360;DHT22;63092;43.582;19.528;2023-07-31T00:10:20;21.60;99.90
73360;DHT22;63092;43.582;19.528;2023-07-31T00:12:46;21.50;99.90
73360;DHT22;63092;43.582;19.528;2023-07-31T00:15:13;21.60;99.90
73360;DHT22;63092;43.582;19.528;2023-07-31T00:17:39;21.50;99.90
73360;DHT22;63092;43.582;19.528;2023-07-31T00:20:05;21.60;99.90
73360;DHT22;63092;43.582;19.528;2023-07-31T00:22:31;21.60;99.90
73360;DHT22;63092;43.582;19.528;2023-07-31T00:24:57;21.50;99.90
73360;DHT22;63092;43.582;19.528;2023-07-31T00:27:23;21.50;99.90
73360;DHT22;63092;43.582;19.528;2023-07-31T00:29:49;21.40;99.90
73360;DHT22;63092;43.582;19.528;2023-07-31T00:32:14;21.50;99.90
73360;DHT22;63092;43.582;19.528;2023-07-31T00:34:40;21.50;99.90
73360;DHT22;63092;43.582;19.528;2023-07-31T00:37:06;21.40;99.90
73360;DHT22;63092;43.582;19.528;2023-07-31T00:39:33;21.40;99.90
73360;DHT22;63092;43.582;19.528;2023-07-31T00:41:59;21.40;99.90
73360;DHT22;63092;43.582;19.528;2023-07-31T00:44:25;21.40;99.90
73360;DHT22;63092;43.582;19.528;2023-07-31T00:46:51;21.40;99.90
73360;DHT22;63092;43.582;19.528;2023-07-31T00:49:16;21.40;99.90
73360;DHT22;63092;43.582;19.528;2023-07-31T00:51:42;21.40;99.90
73360;DHT22;63092;43.582;19.528;2023-07-31T00:54:08;21.40;99.90
73360;DHT22;63092;43.582;19.528;2023-07-31T00:56:34;21.40;99.90
73360;DHT22;63092;43.582;19.528;2023-07-31T00:59:00;21.30;99.90
73360;DHT22;63092;43.582;19.528;2023-07-31T01:01:26;21.40;99.90
73360;DHT22;63092;43.582;19.528;2023-07-31T01:03:52;21.40;99.90
73360;DHT22;63092;43.582;19.528;2023-07-31T01:06:36;21.40;99.90
73360;DHT22;63092;43.582;19.528;2023-07-31T01:09:29;21.40;99.90
73360;DHT22;63092;43.582;19.528;2023-07-31T01:12:00;21.50;99.90
73360;DHT22;63092;43.582;19.528;2023-07-31T01:14:26;21.50;99.90
73360;DHT22;63092;43.582;19.528;2023-07-31T01:16:52;21.40;99.90
73360;DHT22;63092;43.582;19.528;2023-07-31T01:19:22;21.40;99.90
73360;DHT22;63092;43.582;19.528;2023-07-31T01:28:01;21.40;99.90
73360;DHT22;63092;43.582;19.528;2023-07-31T01:30:32;21.40;99.90
73360;DHT22;63092;43.582;19.528;2023-07-31T01:33:02;21.30;99.90
73360;DHT22;63092;43.582;19.528;2023-07-31T01:35:33;21.30;99.90
73360;DHT22;63092;43.582;19.528;2023-07-31T01:37:59;21.40;99.90
73360;DHT22;63092;43.582;19.528;2023-07-31T01:40:25;21.40;99.90
73360;DHT22;63092;43.582;19.528;2023-07-31T01:42:51;21.40;99.90
73360;DHT22;63092;43.582;19.528;2023-07-31T01:45:17;21.40;99.90
73360;DHT22;63092;43.582;19.528;2023-07-31T01:47:42;21.40;99.90
73360;DHT22;63092;43.582;19.528;2023-07-31T01:50:08;21.40;99.90
73360;DHT22;63092;43.582;19.528;2023-07-31T01:52:34;21.30;99.90
73360;DHT22;63092;43.582;19.528;2023-07-31T01:55:00;21.30;99.90
73360;DHT22;63092;43.582;19.528;2023-07-31T01:57:26;21.30;99.90
73360;DHT22;63092;43.582;19.528;2023-07-31T01:59:52;21.30;99.90
73360;DHT22;63092;43.582;19.528;2023-07-31T02:02:21;21.30;99.90
73360;DHT22;63092;43.582;19.528;2023-07-31T02:04:48;21.30;99.90
73360;DHT22;63092;43.582;19.528;2023-07-31T02:07:14;21.30;99.90
73360;DHT22;63092;43.582;19.528;2023-07-31T02:09:40;21.20;99.90
73360;DHT22;63092;43.582;19.528;2023-07-31T02:12:06;21.10;99.90
73360;DHT22;63092;43.582;19.528;2023-07-31T02:14:34;21.20;99.90
73360;DHT22;63092;43.582;19.528;2023-07-31T02:17:00;21.20;99.90
73360;DHT22;63092;43.582;19.528;2023-07-31T02:19:25;21.10;99.90
73360;DHT22;63092;43.582;19.528;2023-07-31T02:21:51;20.90;99.90
73360;DHT22;63092;43.582;19.528;2023-07-31T02:24:17;20.90;99.90
73360;DHT22;63092;43.582;19.528;2023-07-31T02:26:42;21.00;99.90
73360;DHT22;63092;43.582;19.528;2023-07-31T02:29:08;21.00;99.90
73360;DHT22;63092;43.582;19.528;2023-07-31T02:31:34;21.00;99.90
73360;DHT22;63092;43.582;19.528;2023-07-31T02:34:00;21.00;99.90
73360;DHT22;63092;43.582;19.528;2023-07-31T02:36:26;20.90;99.90
73360;DHT22;63092;43.582;19.528;2023-07-31T02:38:51;20.80;99.90
73360;DHT22;63092;43.582;19.528;2023-07-31T02:41:17;20.70;99.90
73360;DHT22;63092;43.582;19.528;2023-07-31T02:43:43;20.80;99.90
73360;DHT22;63092;43.582;19.528;2023-07-31T02:46:09;20.80;99.90
73360;DHT22;63092;43.582;19.528;2023-07-31T02:48:35;20.80;99.90
73360;DHT22;63092;43.582;19.528;2023-07-31T02:51:01;20.80;99.90
73360;DHT22;63092;43.582;19.528;2023-07-31T02:53:26;20.80;99.90
73360;DHT22;63092;43.582;19.528;2023-07-31T02:55:52;20.90;99.90
73360;DHT22;63092;43.582;19.528;2023-07-31T02:58:18;20.80;99.90
73360;DHT22;63092;43.582;19.528;2023-07-31T03:00:44;20.80;99.90
73360;DHT22;63092;43.582;19.528;2023-07-31T03:03:10;20.90;99.90
73360;DHT22;63092;43.582;19.528;2023-07-31T03:05:35;20.90;99.90
73360;DHT22;63092;43.582;19.528;2023-07-31T03:08:01;20.90;99.90
73360;DHT22;63092;43.582;19.528;2023-07-31T03:10:27;20.90;99.90
73360;DHT22;63092;43.582;19.528;2023-07-31T03:12:53;21.00;99.90
73360;DHT22;63092;43.582;19.528;2023-07-31T03:15:18;20.90;99.90
73360;DHT22;63092;43.582;19.528;2023-07-31T03:17:44;20.80;99.90
73360;DHT22;63092;43.582;19.528;2023-07-31T03:20:10;20.80;99.90
73360;DHT22;63092;43.582;19.528;2023-07-31T03:22:36;20.90;99.90
73360;DHT22;63092;43.582;19.528;2023-07-31T03:25:02;20.90;99.90
73360;DHT22;63092;43.582;19.528;2023-07-31T03:27:28;20.90;99.90
73360;DHT22;63092;43.582;19.528;2023-07-31T03:29:54;20.90;99.90
73360;DHT22;63092;43.582;19.528;2023-07-31T03:32:20;20.90;99.90
73360;DHT22;63092;43.582;19.528;2023-07-31T03:34:46;20.90;99.90
73360;DHT22;63092;43.582;19.528;2023-07-31T03:37:11;20.90;99.90
73360;DHT22;63092;43.582;19.528;2023-07-31T03:39:37;20.90;99.90
73360;DHT22;63092;43.582;19.528;2023-07-31T03:42:03;20.80;99.90
73360;DHT22;63092;43.582;19.528;2023-07-31T03:44:28;20.80;99.90
73360;DHT22;63092;43.582;19.528;2023-07-31T03:46:54;20.70;99.90
73360;DHT22;63092;43.582;19.528;2023-07-31T03:49:20;20.70;99.90
73360;DHT22;63092;43.582;19.528;2023-07-31T03:51:46;20.70;99.90
73360;DHT22;63092;43.582;19.528;2023-07-31T03:54:11;20.70;99.90
73360;DHT22;63092;43.582;19.528;2023-07-31T03:56:38;20.70;99.90
73360;DHT22;63092;43.582;19.528;2023-07-31T03:59:04;20.70;99.90
73360;DHT22;63092;43.582;19.528;2023-07-31T04:01:30;20.70;99.90
73360;DHT22;63092;43.582;19.528;2023-07-31T04:03:56;20.60;99.90
73360;DHT22;63092;43.582;19.528;2023-07-31T04:06:21;20.60;99.90
73360;DHT22;63092;43.582;19.528;2023-07-31T04:08:47;20.70;99.90
73360;DHT22;63092;43.582;19.528;2023-07-31T04:11:13;20.60;99.90
73360;DHT22;63092;43.582;19.528;2023-07-31T04:13:39;20.50;99.90
73360;DHT22;63092;43.582;19.528;2023-07-31T04:16:04;20.60;99.90
73360;DHT22;63092;43.582;19.528;2023-07-31T04:18:31;20.50;99.90
73360;DHT22;63092;43.582;19.528;2023-07-31T04:20:58;20.50;99.90
73360;DHT22;63092;43.582;19.528;2023-07-31T04:23:25;20.50;99.90
73360;DHT22;63092;43.582;19.528;2023-07-31T04:25:50;20.40;99.90
73360;DHT22;63092;43.582;19.528;2023-07-31T04:28:16;20.50;99.90
73360;DHT22;63092;43.582;19.528;2023-07-31T04:30:42;20.60;99.90
73360;DHT22;63092;43.582;19.528;2023-07-31T04:33:08;20.60;99.90
73360;DHT22;63092;43.582;19.528;2023-07-31T04:35:34;20.70;99.90
73360;DHT22;63092;43.582;19.528;2023-07-31T04:37:59;20.70;99.90
73360;DHT22;63092;43.582;19.528;2023-07-31T04:40:25;20.70;99.90
73360;DHT22;63092;43.582;19.528;2023-07-31T04:42:51;20.80;99.90
73360;DHT22;63092;43.582;19.528;2023-07-31T04:45:17;20.80;99.90
73360;DHT22;63092;43.582;19.528;2023-07-31T04:47:43;20.90;99.90
73360;DHT22;63092;43.582;19.528;2023-07-31T04:50:09;20.90;99.90
73360;DHT22;63092;43.582;19.528;2023-07-31T04:52:34;20.80;99.90
73360;DHT22;63092;43.582;19.528;2023-07-31T04:55:00;20.90;99.90
73360;DHT22;63092;43.582;19.528;2023-07-31T04:57:26;20.90;99.90
73360;DHT22;63092;43.582;19.528;2023-07-31T04:59:52;21.00;99.90
73360;DHT22;63092;43.582;19.528;2023-07-31T05:02:17;20.90;99.90
73360;DHT22;63092;43.582;19.528;2023-07-31T05:04:43;20.80;99.90
73360;DHT22;63092;43.582;19.528;2023-07-31T05:07:09;20.90;99.90
73360;DHT22;63092;43.582;19.528;2023-07-31T05:09:35;21.00;99.90
73360;DHT22;63092;43.582;19.528;2023-07-31T05:12:00;21.00;99.90
73360;DHT22;63092;43.582;19.528;2023-07-31T05:14:26;21.00;99.90
73360;DHT22;63092;43.582;19.528;2023-07-31T05:16:52;20.90;99.90
73360;DHT22;63092;43.582;19.528;2023-07-31T05:19:18;20.90;99.90
73360;DHT22;63092;43.582;19.528;2023-07-31T05:21:43;21.00;99.90
73360;DHT22;63092;43.582;19.528;2023-07-31T05:24:10;21.00;99.90
73360;DHT22;63092;43.582;19.528;2023-07-31T05:26:36;21.10;99.90
73360;DHT22;63092;43.582;19.528;2023-07-31T05:29:03;21.10;99.90
73360;DHT22;63092;43.582;19.528;2023-07-31T05:31:29;21.10;99.90
73360;DHT22;63092;43.582;19.528;2023-07-31T05:33:55;21.20;99.90
73360;DHT22;63092;43.582;19.528;2023-07-31T05:36:20;21.30;99.90
73360;DHT22;63092;43.582;19.528;2023-07-31T05:38:46;21.30;99.90
73360;DHT22;63092;43.582;19.528;2023-07-31T05:41:12;21.30;99.90
73360;DHT22;63092;43.582;19.528;2023-07-31T05:43:38;21.50;99.90
73360;DHT22;63092;43.582;19.528;2023-07-31T05:46:04;21.50;99.90
73360;DHT22;63092;43.582;19.528;2023-07-31T05:48:30;21.60;99.90
73360;DHT22;63092;43.582;19.528;2023-07-31T05:50:56;21.70;99.90
73360;DHT22;63092;43.582;19.528;2023-07-31T05:53:22;21.60;99.90
73360;DHT22;63092;43.582;19.528;2023-07-31T05:55:47;21.50;99.90
73360;DHT22;63092;43.582;19.528;2023-07-31T05:58:13;21.30;99.90
73360;DHT22;63092;43.582;19.528;2023-07-31T06:00:39;21.30;99.90
73360;DHT22;63092;43.582;19.528;2023-07-31T06:03:04;21.30;99.90
73360;DHT22;63092;43.582;19.528;2023-07-31T06:05:30;21.40;99.90
73360;DHT22;63092;43.582;19.528;2023-07-31T06:07:57;21.50;99.90
73360;DHT22;63092;43.582;19.528;2023-07-31T06:10:22;21.60;99.90
73360;DHT22;63092;43.582;19.528;2023-07-31T06:12:48;21.70;99.90
73360;DHT22;63092;43.582;19.528;2023-07-31T06:15:14;21.90;99.90
73360;DHT22;63092;43.582;19.528;2023-07-31T06:17:40;22.00;99.90
73360;DHT22;63092;43.582;19.528;2023-07-31T06:20:06;22.10;99.90
73360;DHT22;63092;43.582;19.528;2023-07-31T06:22:33;22.10;99.90
73360;DHT22;63092;43.582;19.528;2023-07-31T06:24:59;22.30;99.90
73360;DHT22;63092;43.582;19.528;2023-07-31T06:27:25;22.40;99.90
73360;DHT22;63092;43.582;19.528;2023-07-31T06:29:51;22.50;99.90
73360;DHT22;63092;43.582;19.528;2023-07-31T06:32:16;22.50;99.90
73360;DHT22;63092;43.582;19.528;2023-07-31T06:34:42;22.40;99.90
73360;DHT22;63092;43.582;19.528;2023-07-31T06:37:08;22.40;99.90
73360;DHT22;63092;43.582;19.528;2023-07-31T06:39:33;22.40;99.90
73360;DHT22;63092;43.582;19.528;2023-07-31T06:41:59;22.40;99.90
73360;DHT22;63092;43.582;19.528;2023-07-31T06:44:25;22.60;99.90
73360;DHT22;63092;43.582;19.528;2023-07-31T06:46:51;22.80;99.90
73360;DHT22;63092;43.582;19.528;2023-07-31T06:49:17;22.90;99.90
73360;DHT22;63092;43.582;19.528;2023-07-31T06:51:42;23.00;99.90
73360;DHT22;63092;43.582;19.528;2023-07-31T06:54:09;23.20;99.90
73360;DHT22;63092;43.582;19.528;2023-07-31T06:56:35;23.30;99.90
73360;DHT22;63092;43.582;19.528;2023-07-31T07:03:54;23.70;99.90
73360;DHT22;63092;43.582;19.528;2023-07-31T07:06:19;23.90;99.90
73360;DHT22;63092;43.582;19.528;2023-07-31T07:08:45;23.90;99.90
73360;DHT22;63092;43.582;19.528;2023-07-31T07:13:37;24.20;99.90
73360;DHT22;63092;43.582;19.528;2023-07-31T07:16:03;24.30;99.90
73360;DHT22;63092;43.582;19.528;2023-07-31T07:20:55;24.50;99.90
73360;DHT22;63092;43.582;19.528;2023-07-31T07:23:22;24.60;99.90
73360;DHT22;63092;43.582;19.528;2023-07-31T07:25:48;24.80;99.90
73360;DHT22;63092;43.582;19.528;2023-07-31T07:28:14;24.60;99.40
73360;DHT22;63092;43.582;19.528;2023-07-31T07:30:40;24.70;99.90
73360;DHT22;63092;43.582;19.528;2023-07-31T07:33:06;24.90;99.20
73360;DHT22;63092;43.582;19.528;2023-07-31T07:35:35;24.80;99.30
73360;DHT22;63092;43.582;19.528;2023-07-31T07:38:02;24.90;99.20
73360;DHT22;63092;43.582;19.528;2023-07-31T07:40:28;24.80;99.70
73360;DHT22;63092;43.582;19.528;2023-07-31T07:42:53;24.70;99.30
73360;DHT22;63092;43.582;19.528;2023-07-31T07:45:19;24.90;99.30
73360;DHT22;63092;43.582;19.528;2023-07-31T07:47:45;25.00;99.90
73360;DHT22;63092;43.582;19.528;2023-07-31T07:50:10;25.00;99.50
73360;DHT22;63092;43.582;19.528;2023-07-31T07:52:36;24.90;99.30
73360;DHT22;63092;43.582;19.528;2023-07-31T07:55:02;24.80;99.70
73360;DHT22;63092;43.582;19.528;2023-07-31T07:57:29;24.80;99.90
73360;DHT22;63092;43.582;19.528;2023-07-31T07:59:55;24.70;99.30
73360;DHT22;63092;43.582;19.528;2023-07-31T08:02:22;24.70;99.30
73360;DHT22;63092;43.582;19.528;2023-07-31T08:04:48;24.90;99.30
73360;DHT22;63092;43.582;19.528;2023-07-31T08:07:14;25.10;99.90
73360;DHT22;63092;43.582;19.528;2023-07-31T08:09:40;25.10;99.30
73360;DHT22;63092;43.582;19.528;2023-07-31T08:12:06;25.20;99.40
73360;DHT22;63092;43.582;19.528;2023-07-31T08:14:32;25.20;98.10
73360;DHT22;63092;43.582;19.528;2023-07-31T08:19:25;25.60;97.10
73360;DHT22;63092;43.582;19.528;2023-07-31T08:21:50;25.60;97.20
73360;DHT22;63092;43.582;19.528;2023-07-31T08:24:16;25.70;96.90
73360;DHT22;63092;43.582;19.528;2023-07-31T08:26:42;25.70;96.90
73360;DHT22;63092;43.582;19.528;2023-07-31T08:29:08;25.80;96.20
73360;DHT22;63092;43.582;19.528;2023-07-31T08:31:34;25.90;96.60
73360;DHT22;63092;43.582;19.528;2023-07-31T08:34:01;25.80;96.60
73360;DHT22;63092;43.582;19.528;2023-07-31T08:36:38;25.80;95.60
73360;DHT22;63092;43.582;19.528;2023-07-31T08:39:17;26.00;95.90
73360;DHT22;63092;43.582;19.528;2023-07-31T08:41:45;25.90;94.90
73360;DHT22;63092;43.582;19.528;2023-07-31T08:44:11;25.90;94.70
73360;DHT22;63092;43.582;19.528;2023-07-31T08:46:38;25.70;94.70
73360;DHT22;63092;43.582;19.528;2023-07-31T08:49:07;25.60;95.30
73360;DHT22;63092;43.582;19.528;2023-07-31T08:51:36;25.70;95.30
73360;DHT22;63092;43.582;19.528;2023-07-31T08:54:02;25.80;94.80
73360;DHT22;63092;43.582;19.528;2023-07-31T08:56:32;25.70;94.40
73360;DHT22;63092;43.582;19.528;2023-07-31T08:59:00;25.60;94.70
73360;DHT22;63092;43.582;19.528;2023-07-31T09:01:29;25.60;94.50
73360;DHT22;63092;43.582;19.528;2023-07-31T09:03:56;25.60;95.00
73360;DHT22;63092;43.582;19.528;2023-07-31T09:06:24;25.40;94.90
73360;DHT22;63092;43.582;19.528;2023-07-31T09:08:50;25.20;95.50
73360;DHT22;63092;43.582;19.528;2023-07-31T09:11:16;25.10;95.80
73360;DHT22;63092;43.582;19.528;2023-07-31T09:13:42;25.10;95.60
73360;DHT22;63092;43.582;19.528;2023-07-31T09:16:08;25.10;95.70
73360;DHT22;63092;43.582;19.528;2023-07-31T09:18:54;25.10;95.90
73360;DHT22;63092;43.582;19.528;2023-07-31T09:21:22;25.20;95.20
73360;DHT22;63092;43.582;19.528;2023-07-31T09:23:49;25.40;95.10
73360;DHT22;63092;43.582;19.528;2023-07-31T09:26:35;25.70;94.90
73360;DHT22;63092;43.582;19.528;2023-07-31T09:29:03;25.90;94.70
73360;DHT22;63092;43.582;19.528;2023-07-31T09:31:40;26.20;94.20
73360;DHT22;63092;43.582;19.528;2023-07-31T09:34:09;26.20;94.10
73360;DHT22;63092;43.582;19.528;2023-07-31T09:36:54;26.00;93.80
73360;DHT22;63092;43.582;19.528;2023-07-31T09:39:20;25.90;93.80
73360;DHT22;63092;43.582;19.528;2023-07-31T09:41:56;25.70;93.90
73360;DHT22;63092;43.582;19.528;2023-07-31T09:44:21;25.60;93.70
73360;DHT22;63092;43.582;19.528;2023-07-31T09:47:02;25.50;93.40
73360;DHT22;63092;43.582;19.528;2023-07-31T09:49:29;25.50;93.50
73360;DHT22;63092;43.582;19.528;2023-07-31T09:51:54;25.50;94.00
73360;DHT22;63092;43.582;19.528;2023-07-31T09:54:20;25.50;92.80
73360;DHT22;63092;43.582;19.528;2023-07-31T09:56:48;25.80;93.50
73360;DHT22;63092;43.582;19.528;2023-07-31T09:59:18;25.90;92.90
73360;DHT22;63092;43.582;19.528;2023-07-31T10:01:45;25.90;92.40
73360;DHT22;63092;43.582;19.528;2023-07-31T10:04:12;25.90;91.60
73360;DHT22;63092;43.582;19.528;2023-07-31T10:06:40;25.90;91.70
73360;DHT22;63092;43.582;19.528;2023-07-31T10:09:09;26.10;92.30
73360;DHT22;63092;43.582;19.528;2023-07-31T10:11:47;26.30;90.80
73360;DHT22;63092;43.582;19.528;2023-07-31T10:14:20;26.60;90.60
73360;DHT22;63092;43.582;19.528;2023-07-31T10:19:12;26.80;87.10
73360;DHT22;63092;43.582;19.528;2023-07-31T10:21:38;26.60;89.30
73360;DHT22;63092;43.582;19.528;2023-07-31T10:24:04;26.60;90.30
73360;DHT22;63092;43.582;19.528;2023-07-31T10:26:31;26.50;88.90
73360;DHT22;63092;43.582;19.528;2023-07-31T10:28:58;26.60;88.80
73360;DHT22;63092;43.582;19.528;2023-07-31T10:31:25;26.90;88.20
73360;DHT22;63092;43.582;19.528;2023-07-31T10:33:52;27.10;88.50
73360;DHT22;63092;43.582;19.528;2023-07-31T10:36:20;27.00;85.90
73360;DHT22;63092;43.582;19.528;2023-07-31T10:38:48;27.00;87.00
73360;DHT22;63092;43.582;19.528;2023-07-31T10:41:14;27.20;86.60
73360;DHT22;63092;43.582;19.528;2023-07-31T10:43:40;27.10;84.50
73360;DHT22;63092;43.582;19.528;2023-07-31T10:46:07;27.20;82.60
73360;DHT22;63092;43.582;19.528;2023-07-31T10:48:34;27.20;82.50
73360;DHT22;63092;43.582;19.528;2023-07-31T10:51:10;27.30;81.50
73360;DHT22;63092;43.582;19.528;2023-07-31T10:53:36;27.60;81.80
73360;DHT22;63092;43.582;19.528;2023-07-31T10:56:08;27.70;79.70
73360;DHT22;63092;43.582;19.528;2023-07-31T10:58:35;27.60;77.80
73360;DHT22;63092;43.582;19.528;2023-07-31T11:01:03;27.80;75.90
73360;DHT22;63092;43.582;19.528;2023-07-31T11:06:12;28.10;77.10
73360;DHT22;63092;43.582;19.528;2023-07-31T11:08:49;28.30;75.50
73360;DHT22;63092;43.582;19.528;2023-07-31T11:13:47;28.50;78.20
73360;DHT22;63092;43.582;19.528;2023-07-31T11:16:19;28.60;76.20
73360;DHT22;63092;43.582;19.528;2023-07-31T11:18:46;28.80;76.90
73360;DHT22;63092;43.582;19.528;2023-07-31T11:21:15;29.00;78.50
73360;DHT22;63092;43.582;19.528;2023-07-31T11:23:41;29.00;76.20
73360;DHT22;63092;43.582;19.528;2023-07-31T11:28:35;29.20;76.00
73360;DHT22;63092;43.582;19.528;2023-07-31T11:31:03;29.00;74.50
73360;DHT22;63092;43.582;19.528;2023-07-31T11:33:29;28.90;75.50
73360;DHT22;63092;43.582;19.528;2023-07-31T11:35:54;28.70;75.70
73360;DHT22;63092;43.582;19.528;2023-07-31T11:38:24;28.70;76.20
73360;DHT22;63092;43.582;19.528;2023-07-31T11:40:50;28.80;76.40
73360;DHT22;63092;43.582;19.528;2023-07-31T11:45:48;28.30;75.60
73360;DHT22;63092;43.582;19.528;2023-07-31T11:48:22;28.10;77.30
73360;DHT22;63092;43.582;19.528;2023-07-31T11:50:52;28.20;79.10
73360;DHT22;63092;43.582;19.528;2023-07-31T11:53:45;28.00;75.00
73360;DHT22;63092;43.582;19.528;2023-07-31T11:56:18;28.10;74.80
73360;DHT22;63092;43.582;19.528;2023-07-31T11:58:47;28.20;75.30
73360;DHT22;63092;43.582;19.528;2023-07-31T12:01:14;28.20;74.90
73360;DHT22;63092;43.582;19.528;2023-07-31T12:03:40;28.40;76.30
73360;DHT22;63092;43.582;19.528;2023-07-31T12:06:08;28.40;76.90
73360;DHT22;63092;43.582;19.528;2023-07-31T12:08:34;28.60;79.00
73360;DHT22;63092;43.582;19.528;2023-07-31T12:11:04;29.00;77.30
73360;DHT22;63092;43.582;19.528;2023-07-31T12:13:31;29.00;72.70
73360;DHT22;63092;43.582;19.528;2023-07-31T12:16:00;29.20;75.50
73360;DHT22;63092;43.582;19.528;2023-07-31T12:18:33;29.20;70.30
73360;DHT22;63092;43.582;19.528;2023-07-31T12:26:04;30.00;71.20
73360;DHT22;63092;43.582;19.528;2023-07-31T12:28:30;30.10;72.30
73360;DHT22;63092;43.582;19.528;2023-07-31T12:31:01;30.10;70.60
73360;DHT22;63092;43.582;19.528;2023-07-31T12:33:35;30.10;71.10
73360;DHT22;63092;43.582;19.528;2023-07-31T12:36:03;30.10;71.70
73360;DHT22;63092;43.582;19.528;2023-07-31T12:38:29;29.80;71.00
73360;DHT22;63092;43.582;19.528;2023-07-31T12:40:55;29.70;70.60
73360;DHT22;63092;43.582;19.528;2023-07-31T12:43:21;29.30;75.40
73360;DHT22;63092;43.582;19.528;2023-07-31T12:45:47;29.20;75.70
73360;DHT22;63092;43.582;19.528;2023-07-31T12:48:13;29.40;76.00
73360;DHT22;63092;43.582;19.528;2023-07-31T12:50:39;29.60;76.00
73360;DHT22;63092;43.582;19.528;2023-07-31T12:53:05;29.30;72.90
73360;DHT22;63092;43.582;19.528;2023-07-31T12:55:32;29.00;73.20
73360;DHT22;63092;43.582;19.528;2023-07-31T12:58:00;28.70;71.60
73360;DHT22;63092;43.582;19.528;2023-07-31T13:00:26;28.80;72.00
73360;DHT22;63092;43.582;19.528;2023-07-31T13:02:52;28.80;72.90
73360;DHT22;63092;43.582;19.528;2023-07-31T13:05:18;29.00;72.80
73360;DHT22;63092;43.582;19.528;2023-07-31T13:07:46;29.20;72.90
73360;DHT22;63092;43.582;19.528;2023-07-31T13:10:12;29.30;72.10
73360;DHT22;63092;43.582;19.528;2023-07-31T13:12:37;29.50;70.60
73360;DHT22;63092;43.582;19.528;2023-07-31T13:15:04;29.50;71.30
73360;DHT22;63092;43.582;19.528;2023-07-31T13:17:30;29.60;71.10
73360;DHT22;63092;43.582;19.528;2023-07-31T13:22:23;29.70;70.60
73360;DHT22;63092;43.582;19.528;2023-07-31T13:24:48;29.80;72.10
73360;DHT22;63092;43.582;19.528;2023-07-31T13:27:15;29.80;72.00
73360;DHT22;63092;43.582;19.528;2023-07-31T13:29:46;29.70;70.00
73360;DHT22;63092;43.582;19.528;2023-07-31T13:32:12;29.80;71.50
73360;DHT22;63092;43.582;19.528;2023-07-31T13:34:37;30.00;71.70
73360;DHT22;63092;43.582;19.528;2023-07-31T13:37:03;30.00;71.40
73360;DHT22;63092;43.582;19.528;2023-07-31T13:39:31;30.00;71.60
73360;DHT22;63092;43.582;19.528;2023-07-31T13:41:58;30.00;71.00
73360;DHT22;63092;43.582;19.528;2023-07-31T13:44:24;30.20;69.90
73360;DHT22;63092;43.582;19.528;2023-07-31T13:46:49;30.10;69.50
73360;DHT22;63092;43.582;19.528;2023-07-31T13:49:15;30.10;69.90
73360;DHT22;63092;43.582;19.528;2023-07-31T13:51:41;30.10;70.10
73360;DHT22;63092;43.582;19.528;2023-07-31T13:54:06;30.00;69.10
73360;DHT22;63092;43.582;19.528;2023-07-31T13:56:32;30.00;69.70
73360;DHT22;63092;43.582;19.528;2023-07-31T13:59:04;29.80;69.20
73360;DHT22;63092;43.582;19.528;2023-07-31T14:01:30;29.80;68.20
73360;DHT22;63092;43.582;19.528;2023-07-31T14:03:56;29.70;68.30
73360;DHT22;63092;43.582;19.528;2023-07-31T14:06:22;29.70;67.90
73360;DHT22;63092;43.582;19.528;2023-07-31T14:08:47;29.80;67.80
73360;DHT22;63092;43.582;19.528;2023-07-31T14:11:13;29.80;67.60
73360;DHT22;63092;43.582;19.528;2023-07-31T14:13:39;29.70;67.40
73360;DHT22;63092;43.582;19.528;2023-07-31T14:16:04;29.70;68.50
73360;DHT22;63092;43.582;19.528;2023-07-31T14:18:30;29.70;67.30
73360;DHT22;63092;43.582;19.528;2023-07-31T14:20:57;29.70;67.20
73360;DHT22;63092;43.582;19.528;2023-07-31T14:23:23;29.70;66.90
73360;DHT22;63092;43.582;19.528;2023-07-31T14:25:48;29.40;66.70
73360;DHT22;63092;43.582;19.528;2023-07-31T14:28:14;29.20;67.00
73360;DHT22;63092;43.582;19.528;2023-07-31T14:30:40;29.20;66.80
73360;DHT22;63092;43.582;19.528;2023-07-31T14:33:06;29.00;67.50
73360;DHT22;63092;43.582;19.528;2023-07-31T14:35:32;28.90;67.00
73360;DHT22;63092;43.582;19.528;2023-07-31T14:37:58;28.80;68.20
73360;DHT22;63092;43.582;19.528;2023-07-31T14:40:23;28.80;67.70
73360;DHT22;63092;43.582;19.528;2023-07-31T14:42:49;28.70;67.30
73360;DHT22;63092;43.582;19.528;2023-07-31T14:45:15;28.90;67.80
73360;DHT22;63092;43.582;19.528;2023-07-31T14:47:40;28.90;67.40
73360;DHT22;63092;43.582;19.528;2023-07-31T14:50:06;29.10;67.00
73360;DHT22;63092;43.582;19.528;2023-07-31T14:52:32;29.10;65.10
73360;DHT22;63092;43.582;19.528;2023-07-31T14:54:58;29.30;65.20
73360;DHT22;63092;43.582;19.528;2023-07-31T14:57:24;29.30;64.20
73360;DHT22;63092;43.582;19.528;2023-07-31T14:59:49;29.20;63.40
73360;DHT22;63092;43.582;19.528;2023-07-31T15:02:15;29.00;63.70
73360;DHT22;63092;43.582;19.528;2023-07-31T15:04:41;28.90;63.50
73360;DHT22;63092;43.582;19.528;2023-07-31T15:07:07;28.90;64.00
73360;DHT22;63092;43.582;19.528;2023-07-31T15:09:33;28.80;64.20
73360;DHT22;63092;43.582;19.528;2023-07-31T15:11:59;28.70;64.10
73360;DHT22;63092;43.582;19.528;2023-07-31T15:14:25;28.60;63.90
73360;DHT22;63092;43.582;19.528;2023-07-31T15:16:53;28.60;64.00
73360;DHT22;63092;43.582;19.528;2023-07-31T15:19:18;28.60;64.10
73360;DHT22;63092;43.582;19.528;2023-07-31T15:21:44;28.60;63.70
73360;DHT22;63092;43.582;19.528;2023-07-31T15:24:10;28.50;63.40
73360;DHT22;63092;43.582;19.528;2023-07-31T15:26:37;28.50;64.20
73360;DHT22;63092;43.582;19.528;2023-07-31T15:29:06;28.40;63.80
73360;DHT22;63092;43.582;19.528;2023-07-31T15:31:40;28.40;63.90
73360;DHT22;63092;43.582;19.528;2023-07-31T15:34:06;28.30;63.60
73360;DHT22;63092;43.582;19.528;2023-07-31T15:36:33;28.10;63.90
73360;DHT22;63092;43.582;19.528;2023-07-31T15:38:59;27.90;64.30
73360;DHT22;63092;43.582;19.528;2023-07-31T15:41:25;27.80;64.70
73360;DHT22;63092;43.582;19.528;2023-07-31T15:43:51;27.90;64.70
73360;DHT22;63092;43.582;19.528;2023-07-31T15:46:17;27.90;65.30
73360;DHT22;63092;43.582;19.528;2023-07-31T15:48:44;27.80;65.20
73360;DHT22;63092;43.582;19.528;2023-07-31T15:51:10;27.90;64.70